createdAt,value
2022-11-23T00:09:34.072Z,8.5
2022-11-23T00:19:33.984Z,9
2022-11-23T00:29:34.021Z,9
2022-11-23T00:39:34.098Z,9
2022-11-23T00:49:33.992Z,9
2022-11-23T00:59:34.185Z,9
2022-11-23T01:09:33.963Z,9
2022-11-23T01:19:34.200Z,9
2022-11-23T01:29:33.992Z,9
2022-11-23T01:39:34.208Z,9
2022-11-23T01:49:34.118Z,9
2022-11-23T01:59:34.248Z,8.5
2022-11-23T02:09:34.261Z,8.5
2022-11-23T02:19:34.097Z,8.5
2022-11-23T02:29:34.232Z,8.5
2022-11-23T02:39:34.119Z,8.5
2022-11-23T02:49:34.279Z,8
2022-11-23T02:59:34.239Z,8
2022-11-23T03:09:34.290Z,8
2022-11-23T03:19:34.216Z,8
2022-11-23T03:29:34.275Z,8
2022-11-23T03:39:34.380Z,8
2022-11-23T03:49:34.170Z,8
2022-11-23T03:59:34.315Z,8
2022-11-23T04:09:34.400Z,7.5
2022-11-23T04:19:34.345Z,7.5
2022-11-23T04:29:34.302Z,7.5
2022-11-23T04:39:34.325Z,7.5
2022-11-23T04:49:34.418Z,7.5
2022-11-23T04:59:34.414Z,7.5
2022-11-23T05:09:34.389Z,7.5
2022-11-23T05:19:34.364Z,7.5
2022-11-23T05:29:34.369Z,7.5
2022-11-23T05:39:34.493Z,7.5
2022-11-23T05:49:34.596Z,7.5
2022-11-23T05:59:34.396Z,7.5
2022-11-23T06:09:34.449Z,7.5
2022-11-23T06:19:34.657Z,7.5
2022-11-23T06:29:34.390Z,7.5
2022-11-23T06:39:34.440Z,8
2022-11-23T06:49:34.265Z,7.5
2022-11-23T06:59:34.493Z,7.5
2022-11-23T07:09:34.390Z,8
2022-11-23T07:19:34.524Z,8
2022-11-23T07:29:34.363Z,8
2022-11-23T07:39:55.448Z,8
2022-11-23T07:49:34.419Z,8
2022-11-23T07:59:34.421Z,8
2022-11-23T08:09:34.319Z,8
2022-11-23T08:19:34.243Z,8
2022-11-23T08:29:34.310Z,8.5
2022-11-23T08:39:34.252Z,9
2022-11-23T08:49:34.302Z,9
2022-11-23T08:59:34.480Z,9
2022-11-23T09:09:34.293Z,9
2022-11-23T09:19:34.432Z,10
2022-11-23T09:29:34.296Z,10
2022-11-23T09:39:34.423Z,10
2022-11-23T09:49:34.286Z,10
2022-11-23T09:59:34.420Z,10.5
2022-11-23T10:09:34.286Z,11
2022-11-23T10:19:34.425Z,11
2022-11-23T10:29:34.481Z,10.5
2022-11-23T10:39:34.415Z,11
2022-11-23T10:49:34.494Z,11
2022-11-23T10:59:34.431Z,11
2022-11-23T11:09:34.870Z,11
2022-11-23T11:19:34.411Z,11
2022-11-23T11:29:38.885Z,11
2022-11-23T11:39:34.395Z,11
2022-11-23T11:49:34.473Z,11.5
2022-11-23T11:59:34.834Z,12
2022-11-23T12:09:34.701Z,11.5
2022-11-23T12:19:34.790Z,11.5
2022-11-23T12:29:34.647Z,11.5
2022-11-23T12:39:34.586Z,11.5
2022-11-23T12:49:38.726Z,11.5
2022-11-23T12:59:34.578Z,11.5
2022-11-23T13:09:34.462Z,10.5
2022-11-23T13:19:34.584Z,11
2022-11-23T13:29:34.640Z,12
2022-11-23T13:39:34.785Z,11.5
2022-11-23T13:49:34.653Z,11.5
2022-11-23T13:59:34.576Z,11.5
2022-11-23T14:09:34.632Z,10.5
2022-11-23T14:19:34.575Z,10.5
2022-11-23T14:29:34.648Z,10.5
2022-11-23T14:39:34.754Z,10.5
2022-11-23T14:49:34.657Z,10.5
2022-11-23T14:59:34.777Z,11
2022-11-23T15:09:34.628Z,11
2022-11-23T15:19:34.743Z,11
2022-11-23T15:29:35.056Z,11
2022-11-23T15:39:34.989Z,11
2022-11-23T15:49:35.050Z,10.5
2022-11-23T15:59:34.732Z,10.5
2022-11-23T16:09:50.320Z,10.5
2022-11-23T16:19:35.041Z,10.5
2022-11-23T16:29:34.811Z,10.5
2022-11-23T16:39:34.725Z,10.5
2022-11-23T16:49:35.176Z,10.5
2022-11-23T16:59:35.009Z,10
2022-11-23T17:09:35.090Z,9.5
2022-11-23T17:19:35.224Z,9.5
2022-11-23T17:29:39.105Z,9.5
2022-11-23T17:39:35.294Z,9.5
2022-11-23T17:49:35.074Z,9.5
2022-11-23T17:59:35.109Z,9.5
2022-11-23T18:09:35.116Z,9.5
2022-11-23T18:19:35.204Z,9.5
2022-11-23T18:29:35.190Z,9.5
2022-11-23T18:39:35.163Z,9.5
2022-11-23T18:49:35.219Z,9.5
2022-11-23T18:59:56.693Z,9.5
2022-11-23T19:09:35.447Z,9.5
2022-11-23T19:19:35.384Z,10
2022-11-23T19:29:35.176Z,10
2022-11-23T19:39:35.010Z,10
2022-11-23T19:49:35.360Z,10
2022-11-23T19:59:35.488Z,10
2022-11-23T20:09:35.420Z,10
2022-11-23T20:19:35.416Z,10
2022-11-23T20:29:35.346Z,10
2022-11-23T20:39:35.127Z,10
2022-11-23T20:49:35.998Z,10
2022-11-23T20:59:35.432Z,10
2022-11-23T21:09:35.220Z,10
2022-11-23T21:19:35.482Z,10
2022-11-23T21:29:35.160Z,10
2022-11-23T21:39:35.078Z,9.5
2022-11-23T21:49:35.015Z,10
2022-11-23T21:59:35.154Z,10
2022-11-23T22:09:35.110Z,9.5
2022-11-23T22:19:35.026Z,10
2022-11-23T22:29:35.102Z,10
2022-11-23T22:39:35.492Z,10
2022-11-23T22:49:35.100Z,9.5
2022-11-23T22:59:35.224Z,9.5
2022-11-23T23:09:35.124Z,9.5
2022-11-23T23:19:35.237Z,9.5
2022-11-23T23:29:35.103Z,9.5
2022-11-23T23:39:35.231Z,9.5
2022-11-23T23:49:35.101Z,9.5
2022-11-23T23:59:35.227Z,9.5
